createdAt,value
2023-07-18T00:00:23.203Z,1012.35
2023-07-18T00:01:23.479Z,1012.34
2023-07-18T00:02:23.194Z,1012.35
2023-07-18T00:03:23.183Z,1012.36
2023-07-18T00:04:23.142Z,1012.35
2023-07-18T00:05:23.113Z,1012.29
2023-07-18T00:06:23.096Z,1012.30
2023-07-18T00:07:23.084Z,1012.31
2023-07-18T00:08:23.077Z,1012.29
2023-07-18T00:09:23.067Z,1012.28
2023-07-18T00:10:23.068Z,1012.30
2023-07-18T00:11:23.041Z,1012.28
2023-07-18T00:12:23.022Z,1012.32
2023-07-18T00:13:23.011Z,1012.28
2023-07-18T00:14:22.997Z,1012.25
2023-07-18T00:15:22.995Z,1012.26
2023-07-18T00:16:23.061Z,1012.28
2023-07-18T00:17:22.959Z,1012.31
2023-07-18T00:18:22.954Z,1012.26
2023-07-18T00:19:22.941Z,1012.32
2023-07-18T00:20:22.923Z,1012.28
2023-07-18T00:21:22.903Z,1012.29
2023-07-18T00:22:22.914Z,1012.28
2023-07-18T00:23:22.888Z,1012.24
2023-07-18T00:24:22.879Z,1012.27
2023-07-18T00:25:22.887Z,1012.23
2023-07-18T00:26:22.846Z,1012.27
2023-07-18T00:27:22.836Z,1012.24
2023-07-18T00:28:22.829Z,1012.25
2023-07-18T00:29:22.809Z,1012.24
2023-07-18T00:30:22.823Z,1012.24
2023-07-18T00:31:23.146Z,1012.22
2023-07-18T00:32:22.773Z,1012.21
2023-07-18T00:33:22.757Z,1012.21
2023-07-18T00:34:22.757Z,1012.25
2023-07-18T00:35:22.740Z,1012.24
2023-07-18T00:36:22.728Z,1012.24
2023-07-18T00:37:22.709Z,1012.23
2023-07-18T00:38:22.697Z,1012.27
2023-07-18T00:39:22.681Z,1012.29
2023-07-18T00:40:22.686Z,1012.28
2023-07-18T00:41:22.697Z,1012.25
2023-07-18T00:42:22.656Z,1012.27
2023-07-18T00:43:22.635Z,1012.26
2023-07-18T00:44:22.629Z,1012.28
2023-07-18T00:45:22.702Z,1012.25
2023-07-18T00:46:22.782Z,1012.23
2023-07-18T00:47:22.581Z,1012.25
2023-07-18T00:48:22.573Z,1012.29
2023-07-18T00:49:22.571Z,1012.25
2023-07-18T00:50:22.736Z,1012.24
2023-07-18T00:51:22.536Z,1012.21
2023-07-18T00:52:22.537Z,1012.24
2023-07-18T00:53:22.519Z,1012.22
2023-07-18T00:54:22.507Z,1012.25
2023-07-18T00:55:22.661Z,1012.20
2023-07-18T00:56:22.478Z,1012.22
2023-07-18T00:57:22.462Z,1012.26
2023-07-18T00:58:22.465Z,1012.24
2023-07-18T00:59:22.437Z,1012.23
2023-07-18T01:00:22.434Z,1012.27
2023-07-18T01:01:22.842Z,1012.26
2023-07-18T01:02:22.464Z,1012.26
2023-07-18T01:03:22.533Z,1012.25
2023-07-18T01:04:22.385Z,1012.31
2023-07-18T01:05:22.472Z,1012.27
2023-07-18T01:06:22.346Z,1012.24
2023-07-18T01:07:22.385Z,1012.23
2023-07-18T01:08:22.325Z,1012.27
2023-07-18T01:09:22.312Z,1012.26
2023-07-18T01:10:22.439Z,1012.27
2023-07-18T01:11:22.281Z,1012.27
2023-07-18T01:12:22.273Z,1012.24
2023-07-18T01:13:22.281Z,1012.25
2023-07-18T01:14:22.252Z,1012.25
2023-07-18T01:15:23.205Z,1012.21
2023-07-18T01:16:22.312Z,1012.23
2023-07-18T01:17:22.249Z,1012.21
2023-07-18T01:18:22.227Z,1012.26
2023-07-18T01:19:22.186Z,1012.21
2023-07-18T01:20:22.171Z,1012.23
2023-07-18T01:21:22.312Z,1012.22
2023-07-18T01:22:22.161Z,1012.21
2023-07-18T01:23:22.131Z,1012.21
2023-07-18T01:24:22.120Z,1012.21
2023-07-18T01:25:22.115Z,1012.20
2023-07-18T01:26:22.101Z,1012.18
2023-07-18T01:27:22.084Z,1012.22
2023-07-18T01:28:22.081Z,1012.20
2023-07-18T01:29:22.060Z,1012.19
2023-07-18T01:30:22.049Z,1012.17
2023-07-18T01:31:22.139Z,1012.14
2023-07-18T01:32:22.074Z,1012.12
2023-07-18T01:33:22.014Z,1012.18
2023-07-18T01:34:22.014Z,1012.14
2023-07-18T01:35:21.984Z,1012.13
2023-07-18T01:36:21.976Z,1012.14
2023-07-18T01:37:21.958Z,1012.10
2023-07-18T01:38:21.954Z,1012.12
2023-07-18T01:39:21.932Z,1012.07
2023-07-18T01:40:21.953Z,1012.08
2023-07-18T01:41:21.956Z,1012.09
2023-07-18T01:42:21.926Z,1012.10
2023-07-18T01:43:21.882Z,1012.07
2023-07-18T01:44:21.874Z,1012.05
2023-07-18T01:45:21.859Z,1012.08
2023-07-18T01:46:21.882Z,1012.08
2023-07-18T01:47:21.906Z,1012.06
2023-07-18T01:48:21.824Z,1012.05
2023-07-18T01:49:21.810Z,1012.08
2023-07-18T01:50:21.810Z,1012.07
2023-07-18T01:51:22.139Z,1012.03
2023-07-18T01:52:21.778Z,1012.06
2023-07-18T01:53:21.758Z,1012.06
2023-07-18T01:54:21.750Z,1012.04
2023-07-18T01:55:21.774Z,1012.03
2023-07-18T01:56:21.727Z,1012.06
2023-07-18T01:57:21.706Z,1012.02
2023-07-18T01:58:21.717Z,1012.04
2023-07-18T01:59:21.683Z,1012.05
2023-07-18T02:00:22.330Z,1012.06
2023-07-18T02:01:21.937Z,1012.01
2023-07-18T02:02:21.716Z,1012.02
2023-07-18T02:03:21.710Z,1012.02
2023-07-18T02:04:21.637Z,1012.00
2023-07-18T02:05:21.608Z,1012.00
2023-07-18T02:06:21.591Z,1011.99
2023-07-18T02:07:21.586Z,1012.01
2023-07-18T02:08:21.582Z,1011.97
2023-07-18T02:09:21.559Z,1012.00
2023-07-18T02:10:21.618Z,1011.95
2023-07-18T02:11:21.742Z,1011.95
2023-07-18T02:12:21.520Z,1011.96
2023-07-18T02:13:21.510Z,1011.98
2023-07-18T02:14:21.532Z,1011.96
2023-07-18T02:15:21.486Z,1011.94
2023-07-18T02:16:21.508Z,1011.95
2023-07-18T02:17:21.459Z,1011.97
2023-07-18T02:18:21.442Z,1011.96
2023-07-18T02:19:21.439Z,1011.97
2023-07-18T02:20:21.462Z,1011.95
2023-07-18T02:21:21.797Z,1011.93
2023-07-18T02:22:21.407Z,1011.93
2023-07-18T02:23:21.389Z,1011.88
2023-07-18T02:24:21.372Z,1011.89
2023-07-18T02:25:21.360Z,1011.88
2023-07-18T02:26:21.345Z,1011.89
2023-07-18T02:27:21.334Z,1011.89
2023-07-18T02:28:21.354Z,1011.90
2023-07-18T02:29:21.340Z,1011.89
2023-07-18T02:30:21.294Z,1011.87
2023-07-18T02:31:21.728Z,1011.91
2023-07-18T02:32:21.272Z,1011.90
2023-07-18T02:33:21.256Z,1011.90
2023-07-18T02:34:21.252Z,1011.88
2023-07-18T02:35:21.235Z,1011.88
2023-07-18T02:36:21.223Z,1011.86
2023-07-18T02:37:21.215Z,1011.84
2023-07-18T02:38:21.211Z,1011.84
2023-07-18T02:39:21.182Z,1011.88
2023-07-18T02:40:21.179Z,1011.86
2023-07-18T02:41:21.373Z,1011.85
2023-07-18T02:42:21.147Z,1011.84
2023-07-18T02:43:21.134Z,1011.83
2023-07-18T02:44:21.120Z,1011.80
2023-07-18T02:45:21.105Z,1011.78
2023-07-18T02:46:21.101Z,1011.78
2023-07-18T02:47:21.179Z,1011.70
2023-07-18T02:48:21.069Z,1011.70
2023-07-18T02:49:21.062Z,1011.73
2023-07-18T02:50:21.065Z,1011.69
2023-07-18T02:51:21.408Z,1011.61
2023-07-18T02:52:21.041Z,1011.59
2023-07-18T02:53:21.001Z,1011.61
2023-07-18T02:54:20.989Z,1011.61
2023-07-18T02:55:20.979Z,1011.59
2023-07-18T02:56:20.962Z,1011.65
2023-07-18T02:57:21.023Z,1011.65
2023-07-18T02:58:20.964Z,1011.62
2023-07-18T02:59:20.930Z,1011.66
2023-07-18T03:00:21.433Z,1011.66
2023-07-18T03:01:21.409Z,1011.66
2023-07-18T03:02:20.956Z,1011.63
2023-07-18T03:03:20.919Z,1011.65
2023-07-18T03:04:20.874Z,1011.65
2023-07-18T03:05:20.856Z,1011.66
2023-07-18T03:06:20.839Z,1011.62
2023-07-18T03:07:20.823Z,1011.63
2023-07-18T03:08:20.813Z,1011.64
2023-07-18T03:09:20.806Z,1011.68
2023-07-18T03:10:20.809Z,1011.69
2023-07-18T03:11:20.997Z,1011.67
2023-07-18T03:12:20.720Z,1011.68
2023-07-18T03:13:20.749Z,1011.66
2023-07-18T03:14:20.740Z,1011.66
2023-07-18T03:15:20.678Z,1011.68
2023-07-18T03:16:20.679Z,1011.69
2023-07-18T03:17:20.700Z,1011.67
2023-07-18T03:18:20.636Z,1011.71
2023-07-18T03:19:20.630Z,1011.69
2023-07-18T03:20:21.185Z,1011.68
2023-07-18T03:21:20.853Z,1011.68
2023-07-18T03:22:20.607Z,1011.68
2023-07-18T03:23:20.573Z,1011.65
2023-07-18T03:24:20.563Z,1011.70
2023-07-18T03:25:20.546Z,1011.77
2023-07-18T03:26:20.532Z,1011.72
2023-07-18T03:27:20.520Z,1011.78
2023-07-18T03:28:20.515Z,1011.74
2023-07-18T03:29:20.490Z,1011.74
2023-07-18T03:30:20.475Z,1011.75
2023-07-18T03:31:20.861Z,1011.74
2023-07-18T03:32:20.455Z,1011.69
2023-07-18T03:33:20.441Z,1011.69
2023-07-18T03:34:20.435Z,1011.68
2023-07-18T03:35:20.424Z,1011.69
2023-07-18T03:36:20.421Z,1011.66
2023-07-18T03:37:20.426Z,1011.65
2023-07-18T03:38:20.377Z,1011.67
2023-07-18T03:39:20.369Z,1011.66
2023-07-18T03:40:20.365Z,1011.67
2023-07-18T03:41:20.662Z,1011.60
2023-07-18T03:42:20.330Z,1011.65
2023-07-18T03:43:20.319Z,1011.67
2023-07-18T03:44:20.302Z,1011.65
2023-07-18T03:45:20.293Z,1011.67
2023-07-18T03:46:20.332Z,1011.66
2023-07-18T03:47:21.422Z,1011.68
2023-07-18T03:48:20.325Z,1011.71
2023-07-18T03:49:20.242Z,1011.69
2023-07-18T03:50:20.220Z,1011.66
2023-07-18T03:51:21.345Z,1011.67
2023-07-18T03:52:20.209Z,1011.60
2023-07-18T03:53:20.205Z,1011.68
2023-07-18T03:54:20.181Z,1011.66
2023-07-18T03:55:20.172Z,1011.71
2023-07-18T03:56:20.154Z,1011.68
2023-07-18T03:57:20.152Z,1011.71
2023-07-18T03:58:20.146Z,1011.69
2023-07-18T03:59:20.118Z,1011.70
2023-07-18T04:00:20.100Z,1011.66
2023-07-18T04:01:20.272Z,1011.65
2023-07-18T04:02:20.073Z,1011.67
2023-07-18T04:03:20.132Z,1011.65
2023-07-18T04:04:20.128Z,1011.62
2023-07-18T04:05:20.072Z,1011.59
2023-07-18T04:06:20.039Z,1011.57
2023-07-18T04:07:20.026Z,1011.56
2023-07-18T04:08:20.024Z,1011.57
2023-07-18T04:09:20.007Z,1011.58
2023-07-18T04:10:19.990Z,1011.59
2023-07-18T04:11:20.154Z,1011.59
2023-07-18T04:12:19.954Z,1011.55
2023-07-18T04:13:19.956Z,1011.61
2023-07-18T04:14:19.939Z,1011.57
2023-07-18T04:15:19.935Z,1011.57
2023-07-18T04:16:19.953Z,1011.60
2023-07-18T04:17:19.993Z,1011.60
2023-07-18T04:18:19.901Z,1011.59
2023-07-18T04:19:19.889Z,1011.57
2023-07-18T04:20:19.882Z,1011.53
2023-07-18T04:21:20.142Z,1011.53
2023-07-18T04:22:19.836Z,1011.53
2023-07-18T04:23:19.845Z,1011.50
2023-07-18T04:24:19.802Z,1011.52
2023-07-18T04:25:19.823Z,1011.47
2023-07-18T04:26:19.791Z,1011.48
2023-07-18T04:27:19.766Z,1011.40
2023-07-18T04:28:19.787Z,1011.42
2023-07-18T04:29:19.753Z,1011.43
2023-07-18T04:30:19.745Z,1011.45
2023-07-18T04:31:20.045Z,1011.40
2023-07-18T04:32:19.699Z,1011.44
2023-07-18T04:33:19.704Z,1011.45
2023-07-18T04:34:19.685Z,1011.47
2023-07-18T04:35:19.670Z,1011.41
2023-07-18T04:36:19.676Z,1011.44
2023-07-18T04:37:19.646Z,1011.48
2023-07-18T04:38:19.643Z,1011.46
2023-07-18T04:39:19.622Z,1011.44
2023-07-18T04:40:19.628Z,1011.45
2023-07-18T04:41:19.730Z,1011.45
2023-07-18T04:42:19.595Z,1011.45
2023-07-18T04:43:19.560Z,1011.41
2023-07-18T04:44:19.550Z,1011.43
2023-07-18T04:45:19.545Z,1011.45
2023-07-18T04:46:19.583Z,1011.46
2023-07-18T04:47:19.556Z,1011.47
2023-07-18T04:48:19.544Z,1011.47
2023-07-18T04:49:19.507Z,1011.47
2023-07-18T04:50:19.481Z,1011.52
2023-07-18T04:51:19.564Z,1011.48
2023-07-18T04:52:19.476Z,1011.48
2023-07-18T04:53:19.439Z,1011.47
2023-07-18T04:54:19.427Z,1011.49
2023-07-18T04:55:19.412Z,1011.45
2023-07-18T04:56:19.414Z,1011.45
2023-07-18T04:57:19.393Z,1011.46
2023-07-18T04:58:19.389Z,1011.44
2023-07-18T04:59:19.370Z,1011.44
2023-07-18T05:00:19.387Z,1011.46
2023-07-18T05:01:19.615Z,1011.41
2023-07-18T05:02:19.334Z,1011.40
2023-07-18T05:03:19.432Z,1011.43
2023-07-18T05:04:19.379Z,1011.40
2023-07-18T05:05:19.293Z,1011.40
2023-07-18T05:06:19.280Z,1011.36
2023-07-18T05:07:19.269Z,1011.39
2023-07-18T05:08:19.264Z,1011.41
2023-07-18T05:09:19.250Z,1011.40
2023-07-18T05:10:19.235Z,1011.40
2023-07-18T05:11:19.511Z,1011.40
2023-07-18T05:12:19.199Z,1011.41
2023-07-18T05:13:19.192Z,1011.37
2023-07-18T05:14:19.178Z,1011.38
2023-07-18T05:15:19.162Z,1011.39
2023-07-18T05:16:19.199Z,1011.37
2023-07-18T05:17:19.145Z,1011.38
2023-07-18T05:18:19.125Z,1011.36
2023-07-18T05:19:19.125Z,1011.32
2023-07-18T05:20:19.098Z,1011.36
2023-07-18T05:21:19.373Z,1011.32
2023-07-18T05:22:19.083Z,1011.32
2023-07-18T05:23:19.063Z,1011.39
2023-07-18T05:24:19.051Z,1011.36
2023-07-18T05:25:19.035Z,1011.42
2023-07-18T05:26:19.028Z,1011.40
2023-07-18T05:27:19.015Z,1011.38
2023-07-18T05:28:19.003Z,1011.42
2023-07-18T05:29:18.988Z,1011.41
2023-07-18T05:30:18.980Z,1011.42
2023-07-18T05:31:19.591Z,1011.44
2023-07-18T05:32:18.948Z,1011.45
2023-07-18T05:33:18.935Z,1011.45
2023-07-18T05:34:18.949Z,1011.44
2023-07-18T05:35:18.946Z,1011.42
2023-07-18T05:36:18.904Z,1011.42
2023-07-18T05:37:18.888Z,1011.40
2023-07-18T05:38:18.880Z,1011.43
2023-07-18T05:39:18.893Z,1011.39
2023-07-18T05:40:22.211Z,1011.41
2023-07-18T05:41:19.225Z,1011.39
2023-07-18T05:42:18.831Z,1011.42
2023-07-18T05:43:18.869Z,1011.41
2023-07-18T05:44:18.803Z,1011.43
2023-07-18T05:45:18.801Z,1011.38
2023-07-18T05:46:18.859Z,1011.42
2023-07-18T05:47:18.765Z,1011.41
2023-07-18T05:48:18.761Z,1011.39
2023-07-18T05:49:18.758Z,1011.40
2023-07-18T05:50:18.736Z,1011.37
2023-07-18T05:51:18.971Z,1011.37
2023-07-18T05:52:18.715Z,1011.33
2023-07-18T05:53:18.698Z,1011.36
2023-07-18T05:54:18.673Z,1011.36
2023-07-18T05:55:18.724Z,1011.33
2023-07-18T05:56:18.659Z,1011.36
2023-07-18T05:57:18.645Z,1011.39
2023-07-18T05:58:18.645Z,1011.36
2023-07-18T05:59:18.626Z,1011.40
2023-07-18T06:00:18.612Z,1011.37
2023-07-18T06:01:18.899Z,1011.38
2023-07-18T06:02:18.580Z,1011.38
2023-07-18T06:03:18.728Z,1011.37
2023-07-18T06:04:18.662Z,1011.39
2023-07-18T06:05:18.544Z,1011.41
2023-07-18T06:06:18.553Z,1011.41
2023-07-18T06:07:18.535Z,1011.41
2023-07-18T06:08:18.501Z,1011.42
2023-07-18T06:09:18.506Z,1011.41
2023-07-18T06:10:18.493Z,1011.45
2023-07-18T06:11:18.774Z,1011.44
2023-07-18T06:12:18.454Z,1011.41
2023-07-18T06:13:18.441Z,1011.44
2023-07-18T06:14:18.432Z,1011.47
2023-07-18T06:15:18.416Z,1011.48
2023-07-18T06:16:18.435Z,1011.49
2023-07-18T06:17:18.456Z,1011.49
2023-07-18T06:18:20.583Z,1011.54
2023-07-18T06:19:18.368Z,1011.53
2023-07-18T06:20:18.379Z,1011.50
2023-07-18T06:21:18.608Z,1011.50
2023-07-18T06:22:18.335Z,1011.54
2023-07-18T06:23:18.413Z,1011.55
2023-07-18T06:24:19.727Z,1011.56
2023-07-18T06:25:18.301Z,1011.54
2023-07-18T06:26:18.282Z,1011.57
2023-07-18T06:27:18.276Z,1011.56
2023-07-18T06:28:18.269Z,1011.53
2023-07-18T06:29:18.337Z,1011.53
2023-07-18T06:30:18.226Z,1011.56
2023-07-18T06:31:18.505Z,1011.58
2023-07-18T06:32:18.202Z,1011.56
2023-07-18T06:33:18.190Z,1011.58
2023-07-18T06:34:18.201Z,1011.58
2023-07-18T06:35:23.547Z,1011.55
2023-07-18T06:36:18.174Z,1011.57
2023-07-18T06:37:18.167Z,1011.54
2023-07-18T06:38:18.132Z,1011.52
2023-07-18T06:39:18.349Z,1011.50
2023-07-18T06:40:18.144Z,1011.50
2023-07-18T06:41:18.453Z,1011.54
2023-07-18T06:42:18.090Z,1011.53
2023-07-18T06:43:18.073Z,1011.49
2023-07-18T06:44:18.051Z,1011.52
2023-07-18T06:45:18.047Z,1011.53
2023-07-18T06:46:18.097Z,1011.53
2023-07-18T06:47:18.065Z,1011.52
2023-07-18T06:48:18.004Z,1011.50
2023-07-18T06:49:17.991Z,1011.45
2023-07-18T06:50:17.979Z,1011.50
2023-07-18T06:51:18.268Z,1011.47
2023-07-18T06:52:17.971Z,1011.47
2023-07-18T06:53:17.946Z,1011.42
2023-07-18T06:54:17.930Z,1011.41
2023-07-18T06:55:17.926Z,1011.39
2023-07-18T06:56:17.936Z,1011.44
2023-07-18T06:57:17.898Z,1011.43
2023-07-18T06:58:17.899Z,1011.43
2023-07-18T06:59:17.869Z,1011.42
2023-07-18T07:00:17.861Z,1011.42
2023-07-18T07:01:18.320Z,1011.48
2023-07-18T07:02:17.820Z,1011.46
2023-07-18T07:03:17.968Z,1011.44
2023-07-18T07:04:17.941Z,1011.45
2023-07-18T07:05:17.791Z,1011.46
2023-07-18T07:06:17.783Z,1011.43
2023-07-18T07:07:17.769Z,1011.44
2023-07-18T07:08:17.760Z,1011.38
2023-07-18T07:09:17.738Z,1011.37
2023-07-18T07:10:17.754Z,1011.35
2023-07-18T07:11:17.997Z,1011.33
2023-07-18T07:12:30.644Z,1011.34
2023-07-18T07:13:17.690Z,1011.34
2023-07-18T07:14:17.696Z,1011.35
2023-07-18T07:15:17.688Z,1011.38
2023-07-18T07:16:17.682Z,1011.33
2023-07-18T07:17:17.652Z,1011.33
2023-07-18T07:18:17.627Z,1011.32
2023-07-18T07:19:17.619Z,1011.39
2023-07-18T07:20:17.614Z,1011.36
2023-07-18T07:21:17.843Z,1011.33
2023-07-18T07:22:17.596Z,1011.36
2023-07-18T07:23:17.591Z,1011.32
2023-07-18T07:24:17.561Z,1011.35
2023-07-18T07:25:17.545Z,1011.32
2023-07-18T07:26:17.527Z,1011.31
2023-07-18T07:27:17.517Z,1011.31
2023-07-18T07:28:17.527Z,1011.33
2023-07-18T07:29:19.395Z,1011.28
2023-07-18T07:30:17.502Z,1011.26
2023-07-18T07:31:17.500Z,1011.29
2023-07-18T07:32:17.461Z,1011.26
2023-07-18T07:33:19.434Z,1011.30
2023-07-18T07:34:17.457Z,1011.26
2023-07-18T07:35:17.424Z,1011.27
2023-07-18T07:36:17.413Z,1011.27
2023-07-18T07:37:17.383Z,1011.28
2023-07-18T07:38:17.383Z,1011.25
2023-07-18T07:39:17.381Z,1011.26
2023-07-18T07:40:17.388Z,1011.23
2023-07-18T07:41:17.787Z,1011.26
2023-07-18T07:42:17.328Z,1011.22
2023-07-18T07:43:17.335Z,1011.21
2023-07-18T07:44:17.301Z,1011.24
2023-07-18T07:45:17.289Z,1011.20
2023-07-18T07:46:17.373Z,1011.25
2023-07-18T07:47:17.278Z,1011.20
2023-07-18T07:48:17.257Z,1011.25
2023-07-18T07:49:17.242Z,1011.25
2023-07-18T07:50:17.236Z,1011.24
2023-07-18T07:51:17.505Z,1011.20
2023-07-18T07:52:17.209Z,1011.24
2023-07-18T07:53:17.188Z,1011.18
2023-07-18T07:54:17.182Z,1011.17
2023-07-18T07:55:17.177Z,1011.16
2023-07-18T07:56:17.153Z,1011.16
2023-07-18T07:57:17.137Z,1011.12
2023-07-18T07:58:17.151Z,1011.18
2023-07-18T07:59:17.112Z,1011.19
2023-07-18T08:00:17.105Z,1011.20
2023-07-18T08:01:17.206Z,1011.15
2023-07-18T08:02:17.167Z,1011.16
2023-07-18T08:03:17.071Z,1011.09
2023-07-18T08:04:17.198Z,1011.09
2023-07-18T08:05:17.050Z,1011.10
2023-07-18T08:06:17.034Z,1011.05
2023-07-18T08:07:17.027Z,1011.07
2023-07-18T08:08:17.001Z,1011.13
2023-07-18T08:09:17.006Z,1011.10
2023-07-18T08:10:16.989Z,1011.12
2023-07-18T08:11:17.201Z,1011.10
2023-07-18T08:12:16.956Z,1011.07
2023-07-18T08:13:16.940Z,1011.05
2023-07-18T08:14:16.936Z,1011.06
2023-07-18T08:15:16.919Z,1011.05
2023-07-18T08:16:16.961Z,1011.03
2023-07-18T08:17:16.912Z,1010.97
2023-07-18T08:18:16.869Z,1010.98
2023-07-18T08:19:16.882Z,1010.95
2023-07-18T08:20:16.857Z,1010.94
2023-07-18T08:21:17.028Z,1011.01
2023-07-18T08:22:16.834Z,1010.99
2023-07-18T08:23:16.864Z,1010.97
2023-07-18T08:24:16.805Z,1010.99
2023-07-18T08:25:16.793Z,1010.98
2023-07-18T08:26:16.782Z,1010.97
2023-07-18T08:27:16.773Z,1010.99
2023-07-18T08:28:16.761Z,1011.00
2023-07-18T08:29:16.754Z,1010.93
2023-07-18T08:30:16.752Z,1010.90
2023-07-18T08:31:16.871Z,1010.93
2023-07-18T08:32:16.727Z,1010.93
2023-07-18T08:33:16.753Z,1010.90
2023-07-18T08:34:16.696Z,1010.92
2023-07-18T08:35:16.678Z,1010.91
2023-07-18T08:36:16.660Z,1010.90
2023-07-18T08:37:16.631Z,1010.89
2023-07-18T08:38:16.626Z,1010.89
2023-07-18T08:39:16.613Z,1010.89
2023-07-18T08:40:16.629Z,1010.89
2023-07-18T08:41:16.593Z,1010.88
2023-07-18T08:42:16.572Z,1010.93
2023-07-18T08:43:16.582Z,1010.93
2023-07-18T08:44:16.564Z,1010.93
2023-07-18T08:45:16.587Z,1010.88
2023-07-18T08:46:16.595Z,1010.89
2023-07-18T08:47:16.510Z,1010.87
2023-07-18T08:48:16.558Z,1010.87
2023-07-18T08:49:16.489Z,1010.83
2023-07-18T08:50:16.488Z,1010.82
2023-07-18T08:51:16.499Z,1010.82
2023-07-18T08:52:16.469Z,1010.84
2023-07-18T08:53:16.437Z,1010.80
2023-07-18T08:54:16.426Z,1010.77
2023-07-18T08:55:16.415Z,1010.86
2023-07-18T08:56:16.418Z,1010.87
2023-07-18T08:57:16.393Z,1010.81
2023-07-18T08:58:16.403Z,1010.77
2023-07-18T08:59:16.358Z,1010.76
2023-07-18T09:00:16.349Z,1010.77
2023-07-18T09:01:16.400Z,1010.73
2023-07-18T09:02:16.372Z,1010.75
2023-07-18T09:03:16.309Z,1010.70
2023-07-18T09:04:16.375Z,1010.69
2023-07-18T09:05:16.283Z,1010.67
2023-07-18T09:06:16.271Z,1010.68
2023-07-18T09:07:16.256Z,1010.65
2023-07-18T09:08:16.245Z,1010.68
2023-07-18T09:09:16.242Z,1010.66
2023-07-18T09:10:16.250Z,1010.66
2023-07-18T09:11:16.281Z,1010.62
2023-07-18T09:12:16.200Z,1010.63
2023-07-18T09:13:16.190Z,1010.61
2023-07-18T09:14:16.177Z,1010.58
2023-07-18T09:15:16.163Z,1010.58
2023-07-18T09:16:16.181Z,1010.54
2023-07-18T09:17:16.375Z,1010.48
2023-07-18T09:18:16.159Z,1010.57
2023-07-18T09:19:16.105Z,1010.55
2023-07-18T09:20:16.135Z,1010.60
2023-07-18T09:21:16.086Z,1010.56
2023-07-18T09:22:16.103Z,1010.53
2023-07-18T09:23:16.098Z,1010.51
2023-07-18T09:24:16.046Z,1010.49
2023-07-18T09:25:16.046Z,1010.48
2023-07-18T09:26:16.021Z,1010.45
2023-07-18T09:27:16.010Z,1010.49
2023-07-18T09:28:16.034Z,1010.39
2023-07-18T09:29:15.985Z,1010.41
2023-07-18T09:30:15.968Z,1010.33
2023-07-18T09:31:16.070Z,1010.33
2023-07-18T09:32:15.956Z,1010.31
2023-07-18T09:33:15.935Z,1010.32
2023-07-18T09:34:15.945Z,1010.33
2023-07-18T09:35:15.923Z,1010.26
2023-07-18T09:36:15.900Z,1010.25
2023-07-18T09:37:15.888Z,1010.24
2023-07-18T09:38:15.875Z,1010.25
2023-07-18T09:39:15.858Z,1010.21
2023-07-18T09:40:15.869Z,1010.25
2023-07-18T09:41:15.831Z,1010.30
2023-07-18T09:42:15.824Z,1010.26
2023-07-18T09:43:15.821Z,1010.24
2023-07-18T09:45:15.797Z,1010.27
2023-07-18T09:46:15.834Z,1010.29
2023-07-18T09:47:15.762Z,1010.31
2023-07-18T09:48:15.803Z,1010.27
2023-07-18T09:49:15.735Z,1010.27
2023-07-18T09:50:15.750Z,1010.25
2023-07-18T09:51:15.715Z,1010.29
2023-07-18T09:52:15.729Z,1010.26
2023-07-18T09:53:15.689Z,1010.25
2023-07-18T09:54:15.678Z,1010.30
2023-07-18T09:55:15.656Z,1010.28
2023-07-18T09:56:15.655Z,1010.29
2023-07-18T09:57:15.635Z,1010.32
2023-07-18T09:58:15.649Z,1010.30
2023-07-18T09:59:15.618Z,1010.30
2023-07-18T10:00:15.593Z,1010.30
2023-07-18T10:01:15.619Z,1010.37
2023-07-18T10:02:15.567Z,1010.34
2023-07-18T10:03:15.638Z,1010.36
2023-07-18T10:04:15.590Z,1010.38
2023-07-18T10:05:15.611Z,1010.35
2023-07-18T10:06:16.199Z,1010.37
2023-07-18T10:07:15.513Z,1010.34
2023-07-18T10:08:15.502Z,1010.35
2023-07-18T10:09:15.481Z,1010.29
2023-07-18T10:10:15.506Z,1010.26
2023-07-18T10:11:15.465Z,1010.30
2023-07-18T10:12:15.441Z,1010.27
2023-07-18T10:13:17.629Z,1010.29
2023-07-18T10:14:15.422Z,1010.28
2023-07-18T10:15:15.408Z,1010.33
2023-07-18T10:16:15.492Z,1010.35
2023-07-18T10:17:15.453Z,1010.40
2023-07-18T10:18:15.442Z,1010.32
2023-07-18T10:19:15.353Z,1010.28
2023-07-18T10:20:15.362Z,1010.23
2023-07-18T10:21:15.330Z,1010.24
2023-07-18T10:22:15.336Z,1010.24
2023-07-18T10:23:15.318Z,1010.25
2023-07-18T10:24:15.294Z,1010.20
2023-07-18T10:25:15.286Z,1010.20
2023-07-18T10:26:15.280Z,1010.22
2023-07-18T10:27:15.278Z,1010.19
2023-07-18T10:28:15.266Z,1010.22
2023-07-18T10:29:15.248Z,1010.18
2023-07-18T10:30:15.223Z,1010.14
2023-07-18T10:31:15.221Z,1010.18
2023-07-18T10:32:15.211Z,1010.15
2023-07-18T10:33:15.217Z,1010.21
2023-07-18T10:34:15.203Z,1010.18
2023-07-18T10:35:15.151Z,1010.12
2023-07-18T10:36:15.136Z,1010.13
2023-07-18T10:37:15.149Z,1010.12
2023-07-18T10:38:15.205Z,1010.11
2023-07-18T10:39:15.122Z,1010.13
2023-07-18T10:40:15.117Z,1010.13
2023-07-18T10:41:15.086Z,1010.12
2023-07-18T10:42:15.059Z,1010.14
2023-07-18T10:43:15.054Z,1010.06
2023-07-18T10:44:16.130Z,1010.13
2023-07-18T10:45:15.027Z,1010.09
2023-07-18T10:46:15.075Z,1010.01
2023-07-18T10:47:15.122Z,1010.02
2023-07-18T10:48:15.086Z,1010.02
2023-07-18T10:49:14.974Z,1009.99
2023-07-18T10:50:15.037Z,1010.02
2023-07-18T10:51:14.966Z,1009.96
2023-07-18T10:52:14.967Z,1009.95
2023-07-18T10:53:14.941Z,1009.98
2023-07-18T10:54:14.913Z,1009.94
2023-07-18T10:55:14.906Z,1009.94
2023-07-18T10:56:14.891Z,1009.92
2023-07-18T10:57:14.868Z,1009.86
2023-07-18T10:58:14.892Z,1009.83
2023-07-18T10:59:14.847Z,1009.81
2023-07-18T11:00:14.892Z,1009.82
2023-07-18T11:01:14.860Z,1009.78
2023-07-18T11:02:14.862Z,1009.78
2023-07-18T11:03:14.798Z,1009.73
2023-07-18T11:04:14.863Z,1009.68
2023-07-18T11:05:14.808Z,1009.65
2023-07-18T11:06:14.764Z,1009.66
2023-07-18T11:07:14.747Z,1009.64
2023-07-18T11:08:14.732Z,1009.67
2023-07-18T11:09:14.720Z,1009.69
2023-07-18T11:10:14.861Z,1009.64
2023-07-18T11:11:14.705Z,1009.65
2023-07-18T11:12:14.680Z,1009.68
2023-07-18T11:13:14.672Z,1009.67
2023-07-18T11:14:14.674Z,1009.66
2023-07-18T11:15:14.644Z,1009.63
2023-07-18T11:16:14.706Z,1009.62
2023-07-18T11:17:14.771Z,1009.65
2023-07-18T11:18:14.606Z,1009.60
2023-07-18T11:19:14.602Z,1009.57
2023-07-18T11:20:14.632Z,1009.60
2023-07-18T11:21:14.573Z,1009.59
2023-07-18T11:22:14.578Z,1009.59
2023-07-18T11:23:14.565Z,1009.61
2023-07-18T11:24:14.541Z,1009.57
2023-07-18T11:25:14.525Z,1009.54
2023-07-18T11:26:14.546Z,1009.58
2023-07-18T11:27:14.493Z,1009.57
2023-07-18T11:28:14.516Z,1009.54
2023-07-18T11:29:14.465Z,1009.50
2023-07-18T11:30:14.451Z,1009.47
2023-07-18T11:31:20.969Z,1009.48
2023-07-18T11:32:14.449Z,1009.44
2023-07-18T11:33:14.526Z,1009.44
2023-07-18T11:34:14.441Z,1009.40
2023-07-18T11:35:14.407Z,1009.39
2023-07-18T11:36:14.400Z,1009.33
2023-07-18T11:37:14.386Z,1009.35
2023-07-18T11:38:14.357Z,1009.36
2023-07-18T11:39:14.367Z,1009.33
2023-07-18T11:40:14.395Z,1009.29
2023-07-18T11:41:14.322Z,1009.28
2023-07-18T11:42:14.306Z,1009.27
2023-07-18T11:43:14.298Z,1009.24
2023-07-18T11:44:14.284Z,1009.28
2023-07-18T11:45:14.271Z,1009.23
2023-07-18T11:46:14.283Z,1009.22
2023-07-18T11:47:14.253Z,1009.20
2023-07-18T11:48:14.329Z,1009.23
2023-07-18T11:49:14.267Z,1009.25
2023-07-18T11:50:14.218Z,1009.21
2023-07-18T11:51:14.221Z,1009.18
2023-07-18T11:52:14.256Z,1009.17
2023-07-18T11:53:14.168Z,1009.15
2023-07-18T11:54:14.163Z,1009.13
2023-07-18T11:55:14.151Z,1009.09
2023-07-18T11:56:14.136Z,1009.11
2023-07-18T11:57:14.140Z,1009.09
2023-07-18T11:58:14.132Z,1009.11
2023-07-18T11:59:14.093Z,1009.06
2023-07-18T12:00:14.075Z,1009.03
2023-07-18T12:01:14.114Z,1009.05
2023-07-18T12:02:14.144Z,1008.98
2023-07-18T12:03:14.095Z,1008.98
2023-07-18T12:04:14.298Z,1008.95
2023-07-18T12:05:14.092Z,1008.99
2023-07-18T12:06:14.007Z,1009.02